Time;durP1;ratioP1;P1;durP2;ratioP2;P2;SDS_P1;SDS_P2;PMS_P1;PMS_P2;Temp;Humidity;BMP_temperature;BMP_pressure;BME280_temperature;BME280_humidity;BME280_pressure;Samples;Min_cycle;Max_cycle;Signal;HPM_P1;HPM_P2
2023/08/03 00:00:52;;;;;;;4.33;0.80;;;;;;;17.33;94.99;98555.72;5091985;28;20208;-82
2023/08/03 00:03:19;;;;;;;4.87;1.00;;;;;;;17.31;95.07;98550.53;5091880;28;20671;-83
2023/08/03 00:05:47;;;;;;;2.20;0.73;;;;;;;17.33;94.30;98545.81;5078926;28;20625;-82
2023/08/03 00:08:13;;;;;;;2.70;0.77;;;;;;;17.33;94.08;98543.13;5084522;28;20308;-82
2023/08/03 00:10:40;;;;;;;3.00;1.00;;;;;;;17.31;93.34;98544.31;5089273;28;20216;-82
2023/08/03 00:13:06;;;;;;;3.63;0.70;;;;;;;17.28;93.54;98545.53;5087253;28;20214;-81
2023/08/03 00:15:34;;;;;;;2.23;0.80;;;;;;;17.29;93.37;98539.13;5087467;28;20194;-82
2023/08/03 00:18:00;;;;;;;2.73;0.80;;;;;;;17.29;93.65;98543.69;5088657;28;20257;-82
2023/08/03 00:20:27;;;;;;;1.60;0.83;;;;;;;17.25;94.10;98537.84;5085212;28;20209;-82
2023/08/03 00:22:54;;;;;;;1.77;0.70;;;;;;;17.29;93.68;98544.50;5087395;28;20210;-81
2023/08/03 00:25:21;;;;;;;2.67;0.80;;;;;;;17.28;94.10;98537.47;5089475;28;20689;-82
2023/08/03 00:27:47;;;;;;;1.63;0.80;;;;;;;17.28;94.04;98534.78;5085319;28;20829;-82
2023/08/03 00:30:14;;;;;;;5.07;0.80;;;;;;;17.24;94.28;98536.19;5089689;28;20204;-82
2023/08/03 00:32:41;;;;;;;2.40;0.90;;;;;;;17.27;94.31;98541.19;5088939;28;20254;-82
2023/08/03 00:35:09;;;;;;;3.53;0.90;;;;;;;17.28;94.06;98525.88;5089287;28;20212;-82
2023/08/03 00:37:37;;;;;;;3.83;1.23;;;;;;;17.28;94.16;98536.63;5085651;28;20230;-82
2023/08/03 00:40:04;;;;;;;3.47;0.93;;;;;;;17.25;93.53;98516.31;5085449;28;20334;-82
2023/08/03 00:42:30;;;;;;;4.10;0.93;;;;;;;17.31;93.11;98525.50;5085979;28;20496;-82
2023/08/03 00:44:57;;;;;;;2.77;1.10;;;;;;;17.29;93.97;98528.38;5083564;28;20267;-82
2023/08/03 00:47:23;;;;;;;1.57;0.70;;;;;;;17.30;93.84;98523.81;5083786;28;20226;-81
2023/08/03 00:49:51;;;;;;;2.80;0.80;;;;;;;17.30;94.24;98523.81;5087241;28;20560;-81
2023/08/03 00:52:17;;;;;;;3.03;0.97;;;;;;;17.28;94.33;98520.50;5090144;28;20209;-81
2023/08/03 00:54:44;;;;;;;2.90;1.00;;;;;;;17.25;94.44;98510.94;5091959;28;20209;-81
2023/08/03 00:57:11;;;;;;;2.00;0.73;;;;;;;17.24;94.43;98503.06;5082204;28;20218;-81
2023/08/03 00:59:37;;;;;;;5.53;1.07;;;;;;;17.24;93.20;98503.91;5079292;28;20298;-82
2023/08/03 01:02:04;;;;;;;2.60;1.20;;;;;;;17.22;93.29;98497.88;5087584;28;20214;-82
2023/08/03 01:04:30;;;;;;;2.00;0.80;;;;;;;17.20;92.86;98502.59;5082510;28;20225;-81
2023/08/03 01:06:58;;;;;;;1.87;0.70;;;;;;;17.17;93.04;98500.31;5079873;28;20257;-81
2023/08/03 01:09:25;;;;;;;2.83;0.90;;;;;;;17.18;92.91;98502.00;5087168;28;20200;-81
2023/08/03 01:11:51;;;;;;;3.10;0.87;;;;;;;17.18;92.99;98503.84;5086466;28;20220;-81
2023/08/03 01:14:18;;;;;;;4.50;1.00;;;;;;;17.15;92.93;98491.59;5090185;28;20662;-81
2023/08/03 01:16:44;;;;;;;3.90;0.80;;;;;;;17.13;93.31;98492.81;5075699;28;20206;-82
2023/08/03 01:19:13;;;;;;;3.97;0.90;;;;;;;17.11;92.92;98484.94;5088693;28;20216;-81
2023/08/03 01:21:41;;;;;;;4.90;0.90;;;;;;;17.13;93.17;98485.59;5085996;28;20203;-82
2023/08/03 01:24:09;;;;;;;2.23;0.70;;;;;;;17.10;93.88;98485.97;5088317;28;20225;-81
2023/08/03 01:26:36;;;;;;;2.97;0.93;;;;;;;17.08;93.40;98488.00;5082538;28;20215;-81
2023/08/03 01:29:02;;;;;;;3.70;0.97;;;;;;;17.09;92.74;98486.97;5076505;28;20210;-81
2023/08/03 01:31:29;;;;;;;7.57;1.10;;;;;;;17.08;92.89;98488.00;5079070;28;20255;-82
2023/08/03 01:33:55;;;;;;;4.00;1.40;;;;;;;17.10;92.92;98483.28;5084096;28;20194;-82
2023/08/03 01:36:22;;;;;;;3.23;1.00;;;;;;;17.10;92.93;98479.75;5082006;28;20225;-82
2023/08/03 01:38:54;;;;;;;4.77;1.30;;;;;;;17.08;92.77;98481.78;5086899;28;20237;-81
2023/08/03 01:41:22;;;;;;;3.03;1.20;;;;;;;17.07;92.28;98477.44;5086175;28;20240;-81
2023/08/03 01:44:13;;;;;;;3.63;1.20;;;;;;;17.06;92.45;98479.28;5079956;28;20206;-81
2023/08/03 01:46:39;;;;;;;3.33;0.90;;;;;;;17.05;92.75;98468.72;5086691;28;20201;-81
2023/08/03 01:49:06;;;;;;;3.00;0.90;;;;;;;17.06;91.91;98465.84;5086930;28;20215;-81
2023/08/03 01:51:32;;;;;;;2.73;1.07;;;;;;;17.07;91.69;98467.50;5085372;28;20214;-81
2023/08/03 01:53:59;;;;;;;3.33;1.13;;;;;;;17.08;91.13;98468.34;5084139;28;20210;-81
2023/08/03 01:56:27;;;;;;;2.77;0.73;;;;;;;17.08;90.90;98455.72;5085748;28;20211;-81
2023/08/03 01:58:53;;;;;;;5.53;0.83;;;;;;;17.05;90.36;98452.59;5092638;28;20604;-82
2023/08/03 02:01:20;;;;;;;3.10;0.80;;;;;;;17.04;90.53;98454.44;5086134;28;20902;-81
2023/08/03 02:03:46;;;;;;;3.47;0.80;;;;;;;17.01;90.31;98452.16;5086676;28;20851;-81
2023/08/03 02:06:12;;;;;;;3.80;1.53;;;;;;;17.04;90.06;98446.38;5082036;28;20680;-81
2023/08/03 02:08:39;;;;;;;2.67;1.07;;;;;;;17.06;89.38;98443.50;5082788;28;20220;-81
2023/08/03 02:11:05;;;;;;;5.43;1.20;;;;;;;17.05;89.47;98450.72;5084518;28;20206;-81
2023/08/03 02:13:33;;;;;;;3.37;0.63;;;;;;;17.05;89.65;98439.97;5094550;28;20637;-81
2023/08/03 02:16:02;;;;;;;3.60;1.30;;;;;;;17.05;89.92;98431.91;5084680;28;20588;-81
2023/08/03 02:18:29;;;;;;;2.90;0.83;;;;;;;17.04;90.27;98432.94;5089077;28;20276;-81
2023/08/03 02:20:56;;;;;;;4.83;0.67;;;;;;;17.03;90.64;98431.25;5082441;28;20259;-81
2023/08/03 02:23:22;;;;;;;2.13;0.80;;;;;;;17.09;90.64;98433.19;5081494;28;20217;-82
2023/08/03 02:25:51;;;;;;;2.43;1.03;;;;;;;17.09;90.05;98435.88;5079449;28;20316;-82
2023/08/03 02:28:18;;;;;;;4.07;1.17;;;;;;;17.07;90.18;98426.34;5087399;28;20850;-81
2023/08/03 02:30:45;;;;;;;3.13;0.93;;;;;;;17.02;90.51;98422.38;5079180;28;20204;-81
2023/08/03 02:33:12;;;;;;;3.27;1.10;;;;;;;17.02;90.67;98418.84;5084687;28;20213;-81
2023/08/03 02:35:39;;;;;;;1.87;0.73;;;;;;;17.04;90.67;98427.56;5075429;28;20208;-81
2023/08/03 02:38:05;;;;;;;3.73;0.80;;;;;;;17.02;91.03;98422.38;5089318;28;20295;-81
2023/08/03 02:40:32;;;;;;;5.53;1.07;;;;;;;17.04;90.94;98422.16;5084155;28;20198;-81
2023/08/03 02:42:58;;;;;;;4.57;1.07;;;;;;;17.05;90.30;98423.00;5077600;28;20213;-81
2023/08/03 02:45:25;;;;;;;4.27;0.77;;;;;;;17.06;90.10;98424.66;5090180;28;20224;-81
2023/08/03 02:47:53;;;;;;;4.93;1.30;;;;;;;17.08;90.16;98425.31;5090080;28;20618;-81
2023/08/03 02:50:19;;;;;;;4.17;0.80;;;;;;;17.08;89.92;98418.09;5088638;28;20210;-81
2023/08/03 02:52:46;;;;;;;1.87;0.60;;;;;;;17.05;90.35;98412.25;5082197;28;20224;-81
2023/08/03 02:55:12;;;;;;;3.53;0.80;;;;;;;17.05;89.63;98413.09;5078311;28;20226;-81
2023/08/03 02:57:38;;;;;;;2.37;0.73;;;;;;;17.06;89.84;98421.97;5082679;28;20258;-81
2023/08/03 03:00:06;;;;;;;3.37;0.90;;;;;;;17.02;90.48;98419.66;5081040;28;20209;-81
2023/08/03 03:02:33;;;;;;;3.30;0.70;;;;;;;17.00;90.88;98416.38;5091770;28;20215;-81
2023/08/03 03:05:01;;;;;;;3.30;0.70;;;;;;;16.99;91.53;98413.88;5077376;28;20223;-82
2023/08/03 03:07:31;;;;;;;3.50;1.00;;;;;;;17.00;92.21;98410.16;5091108;28;20235;-81
2023/08/03 03:09:57;;;;;;;3.37;0.80;;;;;;;17.02;93.57;98411.59;5086505;28;20246;-81
2023/08/03 03:12:24;;;;;;;4.73;0.83;;;;;;;17.02;94.56;98408.91;5087594;28;20213;-81
2023/08/03 03:14:50;;;;;;;1.43;0.90;;;;;;;17.03;96.36;98412.44;5097502;28;20577;-82
2023/08/03 03:17:17;;;;;;;5.03;0.63;;;;;;;16.98;97.35;98407.66;5088548;28;20696;-81
2023/08/03 03:19:43;;;;;;;2.37;0.57;;;;;;;16.94;97.73;98395.63;5094951;28;20202;-81
2023/08/03 03:22:12;;;;;;;0.90;0.43;;;;;;;16.92;98.19;98394.13;5089305;28;20228;-81
2023/08/03 03:24:38;;;;;;;4.80;0.70;;;;;;;16.83;98.63;98406.06;5086678;28;20274;-81
2023/08/03 03:27:05;;;;;;;1.10;0.43;;;;;;;16.80;99.19;98399.22;5080067;28;20221;-81
2023/08/03 03:29:32;;;;;;;1.27;0.60;;;;;;;16.78;99.16;98409.31;5085151;28;20205;-81
2023/08/03 03:31:58;;;;;;;2.50;0.50;;;;;;;16.72;99.31;98407.38;5089484;28;20213;-81
2023/08/03 03:34:25;;;;;;;1.73;0.30;;;;;;;16.70;99.69;98413.97;5078934;28;20205;-80
2023/08/03 03:36:51;;;;;;;1.83;0.60;;;;;;;16.70;100.00;98422.03;5082888;28;20228;-81
2023/08/03 03:39:19;;;;;;;2.93;0.40;;;;;;;16.70;100.00;98419.34;5085346;28;20202;-81
2023/08/03 03:41:46;;;;;;;1.30;0.50;;;;;;;16.64;100.00;98413.72;5089623;28;20212;-81
2023/08/03 03:44:12;;;;;;;1.43;0.50;;;;;;;16.59;100.00;98431.41;5082452;28;20238;-81
2023/08/03 03:46:39;;;;;;;1.93;0.50;;;;;;;16.53;100.00;98419.53;5083536;28;20220;-81
2023/08/03 03:49:05;;;;;;;2.67;0.60;;;;;;;16.54;100.00;98431.97;5085149;28;20201;-82
2023/08/03 03:51:31;;;;;;;1.60;0.50;;;;;;;16.54;100.00;98431.97;5092378;28;20195;-82
2023/08/03 03:53:58;;;;;;;1.47;0.30;;;;;;;16.54;100.00;98431.13;5092114;28;20218;-81
2023/08/03 03:56:26;;;;;;;2.67;0.70;;;;;;;16.53;100.00;98435.66;5090070;28;20197;-82
2023/08/03 03:58:52;;;;;;;1.87;0.50;;;;;;;16.54;100.00;98437.34;5090384;28;20231;-81
2023/08/03 04:01:19;;;;;;;2.00;0.53;;;;;;;16.53;100.00;98443.72;5081880;28;20208;-81
2023/08/03 04:03:45;;;;;;;1.07;0.60;;;;;;;16.58;100.00;98445.84;5078070;28;20205;-81
2023/08/03 04:06:11;;;;;;;2.73;0.50;;;;;;;16.57;100.00;98425.38;5093102;28;20254;-81
2023/08/03 04:08:38;;;;;;;1.17;0.50;;;;;;;16.61;100.00;98437.41;5081325;28;20224;-80
2023/08/03 04:11:04;;;;;;;1.90;0.67;;;;;;;16.65;99.26;98428.00;5086699;28;20216;-81
2023/08/03 04:13:34;;;;;;;1.63;0.60;;;;;;;16.64;98.72;98453.19;5090059;28;20219;-82
2023/08/03 04:16:00;;;;;;;1.03;0.50;;;;;;;16.66;98.14;98461.88;5084797;28;20735;-81
2023/08/03 04:18:27;;;;;;;0.90;0.60;;;;;;;16.70;97.85;98457.81;5087151;28;20228;-81
2023/08/03 04:20:54;;;;;;;1.17;0.50;;;;;;;16.76;98.40;98466.97;5086056;28;20243;-81
2023/08/03 04:23:20;;;;;;;3.13;0.50;;;;;;;16.79;98.46;98471.97;5088872;28;20668;-81
2023/08/03 04:25:47;;;;;;;1.43;0.70;;;;;;;16.79;99.74;98469.28;5088369;28;20223;-81
2023/08/03 04:28:13;;;;;;;1.30;0.60;;;;;;;16.77;100.00;98482.91;5080622;28;20232;-81
2023/08/03 04:30:41;;;;;;;2.13;0.60;;;;;;;16.77;100.00;98482.91;5079430;28;20201;-81
2023/08/03 04:33:07;;;;;;;4.53;0.80;;;;;;;16.74;100.00;98488.66;5084733;28;20212;-81
2023/08/03 04:35:34;;;;;;;1.60;0.70;;;;;;;16.73;100.00;98488.84;5082286;28;20211;-81
2023/08/03 04:38:00;;;;;;;0.70;0.60;;;;;;;16.74;100.00;98496.72;5087939;28;20224;-81
2023/08/03 04:40:27;;;;;;;2.40;0.50;;;;;;;16.72;100.00;98493.38;5082664;28;20722;-81
2023/08/03 04:42:53;;;;;;;1.83;0.40;;;;;;;16.70;100.00;98516.09;5081324;28;20661;-81
2023/08/03 04:45:20;;;;;;;0.97;0.50;;;;;;;16.66;100.00;98505.72;5083323;28;20728;-81
2023/08/03 04:47:47;;;;;;;3.43;0.90;;;;;;;16.65;100.00;98514.84;5084990;28;20235;-81
2023/08/03 04:50:14;;;;;;;0.83;0.40;;;;;;;16.66;100.00;98510.25;5080461;28;20211;-81
2023/08/03 04:52:40;;;;;;;2.43;0.50;;;;;;;16.69;100.00;98499.13;5086834;28;20223;-81
2023/08/03 04:55:07;;;;;;;0.90;0.40;;;;;;;16.69;100.00;98501.00;5084549;28;20203;-81
2023/08/03 04:57:34;;;;;;;1.20;0.50;;;;;;;16.70;100.00;98505.34;5089680;28;20228;-81
2023/08/03 05:00:00;;;;;;;1.70;0.50;;;;;;;16.69;99.63;98520.63;5078161;28;20215;-82
2023/08/03 05:02:27;;;;;;;1.23;0.50;;;;;;;16.67;99.99;98515.44;5084167;28;20216;-80
2023/08/03 05:04:54;;;;;;;2.20;0.57;;;;;;;16.67;98.98;98509.25;5080731;28;20210;-81
2023/08/03 05:07:21;;;;;;;1.23;0.50;;;;;;;16.69;99.29;98511.75;5085884;28;20242;-81
2023/08/03 05:09:47;;;;;;;1.23;0.60;;;;;;;16.70;98.85;98481.16;5092444;28;20197;-82
2023/08/03 05:12:14;;;;;;;1.33;0.50;;;;;;;16.72;98.99;98492.56;5084355;28;20217;-81
2023/08/03 05:14:40;;;;;;;1.13;0.40;;;;;;;16.74;98.12;98520.91;5082413;28;20291;-81
2023/08/03 05:17:07;;;;;;;1.93;0.50;;;;;;;16.74;98.10;98520.09;5086977;28;20226;-81
2023/08/03 05:19:33;;;;;;;0.43;0.43;;;;;;;16.71;97.99;98525.84;5085486;28;20769;-81
2023/08/03 05:22:01;;;;;;;1.00;0.47;;;;;;;16.73;98.49;98534.53;5090577;28;20203;-81
2023/08/03 05:24:27;;;;;;;1.87;0.50;;;;;;;16.75;97.97;98540.56;5078661;28;20212;-81
2023/08/03 05:26:54;;;;;;;1.13;0.70;;;;;;;16.78;97.86;98545.56;5086863;28;20698;-81
2023/08/03 05:29:20;;;;;;;1.30;0.43;;;;;;;16.78;96.90;98534.81;5084257;28;20197;-81
2023/08/03 05:31:48;;;;;;;0.57;0.47;;;;;;;16.79;96.99;98547.25;5090860;28;20204;-81
2023/08/03 05:34:14;;;;;;;2.83;0.60;;;;;;;16.80;96.65;98559.66;5077163;28;20200;-81
2023/08/03 05:36:41;;;;;;;2.37;1.23;;;;;;;16.80;95.39;98543.53;5086127;28;20207;-81
2023/08/03 05:39:10;;;;;;;1.10;0.53;;;;;;;16.79;96.15;98558.00;5082155;28;20208;-80
2023/08/03 05:41:36;;;;;;;1.83;0.70;;;;;;;16.81;96.30;98564.84;5082900;28;20202;-81
2023/08/03 05:44:03;;;;;;;0.60;0.60;;;;;;;16.82;95.28;98549.56;5085455;28;20207;-81
2023/08/03 05:46:32;;;;;;;2.90;0.60;;;;;;;16.84;95.06;98574.41;5081375;28;20652;-81
2023/08/03 05:48:58;;;;;;;1.33;0.60;;;;;;;16.88;94.20;98551.47;5084692;28;20210;-81
2023/08/03 05:51:27;;;;;;;2.37;0.80;;;;;;;16.88;93.71;98559.53;5087188;28;20573;-81
2023/08/03 05:53:54;;;;;;;1.97;0.80;;;;;;;16.96;92.98;98559.44;5079391;28;20205;-82
2023/08/03 05:56:23;;;;;;;1.07;0.63;;;;;;;17.00;92.80;98560.75;5085701;28;20569;-81
2023/08/03 05:58:50;;;;;;;3.57;0.80;;;;;;;17.09;91.14;98564.97;5088843;28;20235;-80
2023/08/03 06:01:19;;;;;;;0.83;0.60;;;;;;;17.15;90.76;98550.78;5083169;28;20207;-81
2023/08/03 06:03:46;;;;;;;2.00;1.00;;;;;;;17.23;91.54;98561.41;5087667;28;20200;-81
2023/08/03 06:06:16;;;;;;;0.97;0.50;;;;;;;17.29;90.65;98552.59;5085020;28;20235;-81
2023/08/03 06:08:47;;;;;;;2.20;0.60;;;;;;;17.35;89.73;98567.16;5084202;28;20218;-80
2023/08/03 06:11:16;;;;;;;1.50;0.50;;;;;;;17.38;88.99;98565.94;5090663;28;20213;-81
2023/08/03 06:13:44;;;;;;;0.93;0.50;;;;;;;17.39;87.00;98568.41;5089250;28;20205;-81
2023/08/03 06:16:12;;;;;;;0.77;0.53;;;;;;;17.42;86.46;98568.03;5083177;28;20556;-81
2023/08/03 06:18:46;;;;;;;3.37;1.00;;;;;;;17.50;87.44;98572.47;5076915;28;20234;-81
2023/08/03 06:21:14;;;;;;;3.43;0.73;;;;;;;17.54;85.74;98563.81;5082796;28;20193;-80
2023/08/03 06:23:44;;;;;;;1.70;0.63;;;;;;;17.55;85.29;98576.25;5083419;28;20257;-80
2023/08/03 06:26:13;;;;;;;1.93;0.80;;;;;;;17.61;83.12;98580.03;5081717;28;20233;-81
2023/08/03 06:28:39;;;;;;;1.50;0.50;;;;;;;17.62;83.92;98584.38;5079326;28;20228;-80
2023/08/03 06:31:14;;;;;;;1.13;0.60;;;;;;;17.67;84.25;98584.69;5084863;28;20205;-81
2023/08/03 06:33:41;;;;;;;1.27;0.60;;;;;;;17.67;83.99;98587.38;5085047;28;20570;-80
2023/08/03 06:36:10;;;;;;;1.07;0.50;;;;;;;17.65;83.46;98590.25;5085629;28;20205;-81
2023/08/03 06:38:37;;;;;;;2.07;0.70;;;;;;;17.68;83.12;98591.72;5085601;28;20231;-81
2023/08/03 06:41:04;;;;;;;1.57;0.60;;;;;;;17.69;83.46;98604.16;5085946;28;20214;-81
2023/08/03 06:43:31;;;;;;;1.73;0.50;;;;;;;17.71;82.48;98585.97;5085057;28;20248;-82
2023/08/03 06:45:58;;;;;;;1.33;0.70;;;;;;;17.71;82.33;98596.72;5084410;28;20246;-81
2023/08/03 06:48:26;;;;;;;1.53;0.50;;;;;;;17.70;82.08;98613.91;5086072;28;20218;-81
2023/08/03 06:50:52;;;;;;;2.30;0.70;;;;;;;17.72;82.43;98609.16;5084281;28;20210;-81
2023/08/03 06:53:19;;;;;;;2.37;0.60;;;;;;;17.73;82.22;98615.38;5087969;28;21306;-81
2023/08/03 06:55:48;;;;;;;0.87;0.60;;;;;;;17.76;82.21;98593.44;5091300;28;20217;-82
2023/08/03 06:58:14;;;;;;;1.03;0.53;;;;;;;17.76;82.46;98626.59;5088095;28;20307;-80
2023/08/03 07:00:41;;;;;;;1.77;0.93;;;;;;;17.78;82.35;98616.47;5086182;28;20647;-81
2023/08/03 07:03:08;;;;;;;1.23;0.70;;;;;;;17.80;81.66;98613.56;5085239;28;20216;-81
2023/08/03 07:05:36;;;;;;;0.57;0.40;;;;;;;17.85;80.37;98636.22;5082571;28;20203;-80
2023/08/03 07:08:02;;;;;;;1.03;0.60;;;;;;;17.85;80.81;98630.84;5081319;28;20229;-80
2023/08/03 07:10:28;;;;;;;1.63;0.53;;;;;;;17.88;80.93;98643.91;5082829;28;20292;-81
2023/08/03 07:12:55;;;;;;;1.53;0.50;;;;;;;17.93;82.02;98646.00;5085437;28;20210;-81
2023/08/03 07:15:21;;;;;;;1.57;0.70;;;;;;;17.97;81.21;98647.28;5084005;28;20555;-80
2023/08/03 07:17:48;;;;;;;1.83;0.77;;;;;;;17.97;81.14;98656.22;5085552;28;20399;-80
2023/08/03 07:20:16;;;;;;;0.60;0.60;;;;;;;17.97;80.04;98663.47;5085811;28;20206;-81
2023/08/03 07:22:45;;;;;;;1.17;0.60;;;;;;;17.97;80.33;98655.38;5085327;28;20252;-81
2023/08/03 07:25:12;;;;;;;0.80;0.60;;;;;;;17.99;80.76;98650.63;5080361;28;20226;-81
2023/08/03 07:27:40;;;;;;;0.93;0.60;;;;;;;18.01;80.17;98652.13;5080443;28;20226;-82
2023/08/03 07:30:08;;;;;;;3.03;0.50;;;;;;;18.03;79.92;98650.06;5085816;28;20215;-80
2023/08/03 07:32:35;;;;;;;1.13;0.90;;;;;;;18.06;79.92;98651.53;5090399;28;20218;-80
2023/08/03 07:35:02;;;;;;;2.10;0.50;;;;;;;18.09;79.64;98655.72;5093314;28;20220;-80
2023/08/03 07:37:28;;;;;;;2.30;0.50;;;;;;;18.13;79.24;98655.09;5086381;28;20223;-80
2023/08/03 07:39:56;;;;;;;2.17;0.53;;;;;;;18.15;79.05;98649.53;5088420;28;20206;-81
2023/08/03 07:42:22;;;;;;;1.97;0.60;;;;;;;18.19;77.77;98659.72;5082087;28;20201;-80
2023/08/03 07:44:52;;;;;;;0.83;0.50;;;;;;;18.26;78.10;98673.28;5088803;28;20211;-81
2023/08/03 07:47:19;;;;;;;1.33;0.50;;;;;;;18.31;78.69;98671.66;5095154;28;20237;-81
2023/08/03 07:49:45;;;;;;;2.00;0.60;;;;;;;18.36;78.34;98673.75;5085337;28;20665;-81
2023/08/03 07:52:12;;;;;;;1.67;0.80;;;;;;;18.37;78.40;98668.19;5087948;28;20610;-81
2023/08/03 07:54:38;;;;;;;0.40;0.40;;;;;;;18.39;80.17;98687.69;5090651;28;20215;-81
2023/08/03 07:57:09;;;;;;;2.07;0.63;;;;;;;18.43;82.68;98685.44;5089373;28;20226;-81
2023/08/03 07:59:36;;;;;;;1.63;0.70;;;;;;;18.44;83.89;98673.63;5088087;28;20211;-80
2023/08/03 08:02:04;;;;;;;1.03;0.40;;;;;;;18.45;83.79;98674.47;5090584;28;20215;-81
2023/08/03 08:04:30;;;;;;;0.93;0.60;;;;;;;18.39;82.02;98682.28;5088083;28;20207;-81
2023/08/03 08:06:57;;;;;;;1.30;0.60;;;;;;;18.39;82.70;98676.06;5088262;28;20241;-81
2023/08/03 08:09:24;;;;;;;1.70;0.50;;;;;;;18.35;82.34;98690.97;5087688;28;20656;-81
2023/08/03 08:11:51;;;;;;;0.90;0.63;;;;;;;18.38;82.74;98691.41;5081721;28;20219;-81
2023/08/03 08:14:18;;;;;;;1.50;0.43;;;;;;;18.39;82.13;98694.94;5092338;28;20298;-80
2023/08/03 08:16:45;;;;;;;2.50;0.70;;;;;;;18.37;82.84;98705.06;5090528;28;20194;-81
2023/08/03 08:19:11;;;;;;;0.50;0.50;;;;;;;18.42;82.01;98710.72;5085714;28;20585;-81
2023/08/03 08:21:38;;;;;;;0.63;0.60;;;;;;;18.40;81.06;98696.59;5088880;28;20579;-80
2023/08/03 08:24:04;;;;;;;1.20;0.60;;;;;;;18.43;83.09;98704.31;5086519;28;20201;-80
2023/08/03 08:26:31;;;;;;;0.90;0.60;;;;;;;18.43;82.61;98696.22;5088476;28;20226;-81
2023/08/03 08:28:58;;;;;;;1.13;0.70;;;;;;;18.42;83.73;98699.94;5087224;28;20532;-80
2023/08/03 08:31:26;;;;;;;2.70;0.60;;;;;;;18.43;84.64;98698.91;5087937;28;20298;-81
2023/08/03 08:33:52;;;;;;;1.23;0.70;;;;;;;18.47;83.62;98702.88;5084232;28;20210;-81
2023/08/03 08:36:19;;;;;;;0.40;0.40;;;;;;;18.46;83.87;98692.28;5084479;28;20206;-81
2023/08/03 08:38:45;;;;;;;0.40;0.40;;;;;;;18.50;83.37;98698.94;5085072;28;20227;-81
2023/08/03 08:41:12;;;;;;;1.50;0.60;;;;;;;18.54;83.25;98701.06;5087306;28;20482;-81
2023/08/03 08:43:40;;;;;;;2.80;0.60;;;;;;;18.59;84.39;98709.44;5082930;28;20196;-81
2023/08/03 08:46:06;;;;;;;0.50;0.50;;;;;;;18.69;84.04;98707.22;5087828;28;20230;-81
2023/08/03 08:48:35;;;;;;;0.73;0.50;;;;;;;18.76;82.72;98715.38;5080187;28;20235;-82
2023/08/03 08:51:04;;;;;;;0.30;0.30;;;;;;;18.92;82.62;98714.25;5076930;28;20208;-81
2023/08/03 08:53:31;;;;;;;0.97;0.30;;;;;;;19.10;80.27;98716.44;5082869;28;20211;-81
2023/08/03 08:55:57;;;;;;;0.60;0.50;;;;;;;19.24;79.15;98716.31;5090205;28;20206;-81
2023/08/03 08:58:25;;;;;;;0.97;0.50;;;;;;;19.28;78.89;98728.38;5088142;28;20230;-80
2023/08/03 09:00:51;;;;;;;0.80;0.50;;;;;;;19.31;79.31;98746.03;5089034;28;20203;-82
2023/08/03 09:03:18;;;;;;;0.40;0.40;;;;;;;19.33;81.97;98755.59;5087246;28;20208;-81
2023/08/03 09:05:58;;;;;;;0.53;0.53;;;;;;;19.30;80.17;98755.16;5088560;28;20204;-81
2023/08/03 09:08:24;;;;;;;1.67;0.50;;;;;;;19.25;82.14;98753.06;5087869;28;20223;-81
2023/08/03 09:10:52;;;;;;;0.60;0.50;;;;;;;19.17;83.80;98769.38;5087939;28;20204;-81
2023/08/03 09:13:26;;;;;;;0.70;0.60;;;;;;;19.11;84.68;98778.28;5082520;28;20212;-80
2023/08/03 09:15:53;;;;;;;1.43;0.60;;;;;;;19.07;85.76;98777.84;5090316;28;20193;-80
2023/08/03 09:18:19;;;;;;;0.90;0.60;;;;;;;18.98;86.23;98795.22;5090209;28;20224;-80
2023/08/03 09:20:47;;;;;;;1.97;0.60;;;;;;;18.92;88.38;98798.69;5087298;28;20203;-80
2023/08/03 09:23:28;;;;;;;1.27;0.70;;;;;;;18.85;89.48;98813.97;5086560;28;20218;-79
2023/08/03 09:25:54;;;;;;;0.80;0.80;;;;;;;18.81;89.37;98811.91;5086294;28;20218;-79
2023/08/03 09:28:33;;;;;;;0.90;0.50;;;;;;;18.63;89.24;98818.56;5087952;28;20951;-79
2023/08/03 09:31:00;;;;;;;1.27;0.60;;;;;;;18.48;90.44;98819.63;5081646;28;20201;-79
2023/08/03 09:33:26;;;;;;;0.60;0.60;;;;;;;18.32;91.45;98826.09;5085431;28;20207;-79
2023/08/03 09:36:04;;;;;;;0.50;0.50;;;;;;;18.16;92.21;98820.94;5085511;28;20204;-80
2023/08/03 09:38:30;;;;;;;1.13;0.57;;;;;;;18.11;94.30;98820.66;5089477;28;20706;-79
2023/08/03 09:40:57;;;;;;;0.80;0.60;;;;;;;18.01;94.36;98823.66;5087598;28;20218;-80
2023/08/03 09:43:26;;;;;;;0.67;0.50;;;;;;;17.96;94.94;98839.56;5088483;28;20220;-80
2023/08/03 09:45:53;;;;;;;0.57;0.47;;;;;;;17.95;96.62;98821.72;5083599;28;20327;-80
2023/08/03 09:48:20;;;;;;;0.87;0.60;;;;;;;17.96;98.42;98837.69;5085223;28;20231;-80
2023/08/03 09:50:51;;;;;;;0.67;0.60;;;;;;;17.99;99.66;98831.09;5081971;28;20198;-80
2023/08/03 09:53:21;;;;;;;2.10;0.40;;;;;;;18.03;100.00;98838.63;5088809;28;20214;-80
2023/08/03 09:55:57;;;;;;;0.70;0.50;;;;;;;18.00;97.92;98852.47;5081282;28;20198;-80
2023/08/03 09:58:29;;;;;;;0.97;0.50;;;;;;;17.98;99.72;98850.97;5086651;28;20225;-81
2023/08/03 10:00:59;;;;;;;0.27;0.10;;;;;;;17.96;95.81;98859.25;5082624;28;20198;-80
2023/08/03 10:03:28;;;;;;;0.50;0.30;;;;;;;17.89;94.19;98862.88;5085411;28;20558;-80
2023/08/03 10:06:02;;;;;;;0.20;0.20;;;;;;;17.79;96.06;98875.78;5085771;28;20218;-80
2023/08/03 10:08:33;;;;;;;0.33;0.20;;;;;;;17.80;96.54;98874.75;5084555;28;20224;-80
2023/08/03 10:11:01;;;;;;;0.50;0.30;;;;;;;17.79;97.84;98883.88;5088931;28;20215;-80
2023/08/03 10:13:28;;;;;;;0.30;0.23;;;;;;;17.74;97.90;98879.03;5086191;28;20275;-80
2023/08/03 10:15:56;;;;;;;0.37;0.20;;;;;;;17.69;99.26;98890.38;5089006;28;20656;-81
2023/08/03 10:18:23;;;;;;;0.27;0.20;;;;;;;17.69;99.96;98889.53;5086112;28;20308;-80
2023/08/03 10:20:50;;;;;;;0.70;0.20;;;;;;;17.64;100.00;98891.94;5087545;28;20911;-81
2023/08/03 10:23:18;;;;;;;0.20;0.20;;;;;;;17.66;100.00;98895.28;5091399;28;20578;-81
2023/08/03 10:25:54;;;;;;;0.40;0.30;;;;;;;17.65;100.00;98899.84;5087000;28;20198;-80
2023/08/03 10:28:21;;;;;;;0.97;0.33;;;;;;;17.65;100.00;98905.22;5089191;28;20232;-80
2023/08/03 10:31:10;;;;;;;0.50;0.20;;;;;;;17.62;100.00;98908.25;5088225;28;20257;-81
2023/08/03 10:34:06;;;;;;;0.20;0.20;;;;;;;17.62;100.00;98905.56;5087737;28;20201;-80
2023/08/03 10:36:43;;;;;;;0.20;0.20;;;;;;;17.67;100.00;98915.81;5093117;28;20199;-81
2023/08/03 10:39:12;;;;;;;0.30;0.20;;;;;;;17.71;100.00;98908.22;5076944;28;20203;-81
2023/08/03 10:41:41;;;;;;;0.10;0.10;;;;;;;17.73;100.00;98925.00;5084848;28;20210;-81
2023/08/03 10:44:24;;;;;;;0.20;0.20;;;;;;;17.67;100.00;98930.09;5093173;28;20207;-81
2023/08/03 10:46:53;;;;;;;0.27;0.23;;;;;;;17.69;100.00;98921.84;5091043;28;20678;-80
2023/08/03 10:49:49;;;;;;;0.20;0.20;;;;;;;17.68;100.00;98930.94;5093603;28;20227;-80
2023/08/03 10:52:18;;;;;;;0.37;0.37;;;;;;;17.64;100.00;98924.25;5085783;28;20222;-80
2023/08/03 10:54:45;;;;;;;0.40;0.40;;;;;;;17.61;100.00;98927.28;5087267;28;20211;-80
2023/08/03 10:57:14;;;;;;;1.07;0.40;;;;;;;17.63;100.00;98923.38;5088516;28;20217;-80
2023/08/03 10:59:43;;;;;;;0.47;0.30;;;;;;;17.65;100.00;98934.84;5089050;28;20660;-81
2023/08/03 11:02:12;;;;;;;0.77;0.40;;;;;;;17.69;100.00;98938.00;5090540;28;20217;-80
2023/08/03 11:04:39;;;;;;;1.33;0.50;;;;;;;17.64;100.00;98940.41;5084056;28;20211;-79
2023/08/03 11:07:07;;;;;;;0.93;0.40;;;;;;;17.53;100.00;98935.44;5089262;28;20233;-79
2023/08/03 11:09:34;;;;;;;0.30;0.30;;;;;;;17.60;100.00;98936.38;5078471;28;20207;-79
2023/08/03 11:12:01;;;;;;;1.50;0.60;;;;;;;17.62;100.00;98939.72;5079256;28;20241;-80
2023/08/03 11:14:29;;;;;;;1.27;0.50;;;;;;;17.61;100.00;98946.13;5084642;28;20212;-80
2023/08/03 11:16:56;;;;;;;1.23;0.50;;;;;;;17.66;100.00;98941.06;5086904;28;20210;-80
2023/08/03 11:19:23;;;;;;;0.50;0.40;;;;;;;17.67;100.00;98937.34;5089823;28;20681;-80
2023/08/03 11:21:49;;;;;;;0.40;0.40;;;;;;;17.63;100.00;98941.38;5090777;28;20222;-80
2023/08/03 11:24:16;;;;;;;1.13;0.50;;;;;;;17.64;100.00;98948.47;5086003;28;20789;-80
2023/08/03 11:26:43;;;;;;;1.30;0.50;;;;;;;17.69;100.00;98946.91;5088712;28;20211;-80
2023/08/03 11:29:10;;;;;;;1.07;0.50;;;;;;;17.74;100.00;98948.19;5090643;28;20205;-80
2023/08/03 11:31:40;;;;;;;1.33;0.60;;;;;;;17.77;100.00;98947.84;5090586;28;20206;-80
2023/08/03 11:34:06;;;;;;;0.90;0.40;;;;;;;17.79;100.00;98952.03;5085087;28;20263;-80